Time;durP1;ratioP1;P1;durP2;ratioP2;P2;SDS_P1;SDS_P2;PMS_P1;PMS_P2;Temp;Humidity;BMP_temperature;BMP_pressure;BME280_temperature;BME280_humidity;BME280_pressure;Samples;Min_cycle;Max_cycle;Signal;HPM_P1;HPM_P2
2023/12/02 00:00:37;;;;;;;12.07;5.68;;;;;;;-0.41;95.69;100021.53;5193788;28;20392;-77
2023/12/02 00:03:07;;;;;;;12.00;5.82;;;;;;;-0.50;95.60;100026.69;5189645;28;20033;-76
2023/12/02 00:05:37;;;;;;;12.93;6.50;;;;;;;-0.47;97.04;100029.22;5186348;28;20030;-78
2023/12/02 00:08:08;;;;;;;13.55;5.18;;;;;;;-0.52;96.58;100033.50;5189966;28;20034;-77
2023/12/02 00:10:38;;;;;;;12.93;6.18;;;;;;;-0.67;98.95;100032.66;5190660;28;20187;-78
2023/12/02 00:13:08;;;;;;;13.10;5.95;;;;;;;-0.54;98.81;100018.97;5189205;28;20548;-77
2023/12/02 00:15:39;;;;;;;11.10;5.18;;;;;;;-0.34;98.09;100012.97;5193328;28;20036;-76
2023/12/02 00:18:09;;;;;;;14.68;5.80;;;;;;;-0.21;97.80;100019.78;5189411;28;20029;-77
2023/12/02 00:20:39;;;;;;;14.90;6.20;;;;;;;-0.25;96.53;100007.81;5187028;28;20120;-77
2023/12/02 00:23:10;;;;;;;12.65;5.97;;;;;;;-0.37;97.51;100009.56;5172996;28;20040;-77
2023/12/02 00:25:40;;;;;;;13.35;6.15;;;;;;;-0.29;98.18;100006.13;5189227;28;20037;-76
2023/12/02 00:28:10;;;;;;;11.05;5.47;;;;;;;-0.38;97.80;100006.13;5193073;28;20138;-77
2023/12/02 00:30:40;;;;;;;14.13;6.00;;;;;;;-0.38;98.04;100011.25;5191826;28;20108;-76
2023/12/02 00:33:11;;;;;;;14.27;6.45;;;;;;;-0.34;98.10;100006.97;5189118;28;20100;-76
2023/12/02 00:35:41;;;;;;;11.95;6.05;;;;;;;-0.37;98.07;100001.84;5185313;28;20021;-77
2023/12/02 00:38:12;;;;;;;13.18;6.28;;;;;;;-0.31;98.70;100007.84;5191300;28;20230;-74
2023/12/02 00:40:42;;;;;;;15.10;6.50;;;;;;;-0.15;98.46;99999.25;5186507;28;20018;-76
2023/12/02 00:43:12;;;;;;;12.35;5.40;;;;;;;-0.36;97.55;100001.00;5173443;28;20038;-75
2023/12/02 00:45:43;;;;;;;13.80;6.03;;;;;;;-0.36;98.16;99999.25;5260573;22;20582;-73
2023/12/02 00:48:14;;;;;;;15.32;6.70;;;;;;;-0.38;97.97;100000.16;5181976;28;20026;-72
2023/12/02 00:50:44;;;;;;;18.67;8.80;;;;;;;-0.43;98.48;100001.84;5167755;28;20044;-73
2023/12/02 00:53:14;;;;;;;17.17;8.07;;;;;;;-0.39;98.90;100001.00;5186029;28;20033;-73
2023/12/02 00:55:45;;;;;;;17.83;8.70;;;;;;;-0.25;98.05;100001.84;5188105;28;20029;-72
2023/12/02 00:58:15;;;;;;;15.68;8.38;;;;;;;-0.38;97.43;100002.72;5168680;28;20045;-72
2023/12/02 01:00:45;;;;;;;14.75;6.22;;;;;;;-0.23;97.07;100000.13;5187319;28;20052;-73
2023/12/02 01:03:15;;;;;;;12.18;5.20;;;;;;;-0.21;96.48;99999.25;5188164;28;20025;-72
2023/12/02 01:05:46;;;;;;;12.32;5.32;;;;;;;-0.20;96.13;100000.13;5172041;28;20114;-72
2023/12/02 01:08:16;;;;;;;11.15;4.95;;;;;;;-0.29;94.98;100003.56;5185397;28;20029;-72
2023/12/02 01:10:49;;;;;;;13.55;5.25;;;;;;;-0.33;95.84;100006.13;5185633;28;20025;-73
2023/12/02 01:13:20;;;;;;;14.55;5.53;;;;;;;-0.21;95.70;100006.94;5192412;28;20048;-73
2023/12/02 01:15:50;;;;;;;11.35;5.05;;;;;;;-0.17;96.16;100010.38;5188206;28;20034;-72
2023/12/02 01:18:20;;;;;;;10.70;4.50;;;;;;;-0.16;95.84;100017.22;5187279;28;20057;-72
2023/12/02 01:20:50;;;;;;;10.15;5.00;;;;;;;-0.25;95.48;100017.25;5173721;28;20056;-72
2023/12/02 01:23:21;;;;;;;10.32;5.10;;;;;;;-0.38;95.78;100025.81;5193181;28;20492;-73
2023/12/02 01:25:51;;;;;;;8.50;4.38;;;;;;;-0.41;96.07;100021.53;5191801;28;20116;-73
2023/12/02 01:28:22;;;;;;;10.57;4.60;;;;;;;-0.37;96.47;100019.81;5170109;28;20353;-73
2023/12/02 01:30:52;;;;;;;11.40;5.32;;;;;;;-0.27;95.96;100026.63;5186118;28;20501;-72
2023/12/02 01:33:22;;;;;;;12.10;4.78;;;;;;;-0.27;95.41;100026.63;5189812;28;20055;-72
2023/12/02 01:35:53;;;;;;;10.52;5.07;;;;;;;-0.42;95.71;100026.69;5192618;28;20074;-73
2023/12/02 01:38:23;;;;;;;9.02;4.72;;;;;;;-0.43;95.90;100030.94;5188784;28;20479;-72
2023/12/02 01:40:53;;;;;;;10.65;4.90;;;;;;;-0.47;96.29;100031.81;5187511;28;20026;-73
2023/12/02 01:43:25;;;;;;;10.50;5.43;;;;;;;-0.35;96.61;100034.34;5193857;28;20029;-72
2023/12/02 01:45:56;;;;;;;10.55;4.85;;;;;;;-0.45;95.93;100032.66;5188146;28;20185;-72
2023/12/02 01:48:31;;;;;;;11.13;5.28;;;;;;;-0.53;97.16;100028.38;5176845;28;20565;-73
2023/12/02 01:51:03;;;;;;;15.63;6.97;;;;;;;-0.57;98.64;100042.91;5194043;28;20034;-73
2023/12/02 01:53:33;;;;;;;16.17;6.95;;;;;;;-0.44;99.20;100021.53;5192385;28;20025;-72
2023/12/02 01:56:04;;;;;;;12.88;6.60;;;;;;;-0.35;98.88;100020.66;5192191;28;20033;-73
2023/12/02 01:58:36;;;;;;;15.35;6.43;;;;;;;-0.46;98.26;100033.50;5192692;28;20029;-73
2023/12/02 02:01:06;;;;;;;14.95;6.38;;;;;;;-0.42;98.52;100031.81;5186302;28;20029;-73
2023/12/02 02:03:36;;;;;;;17.08;6.38;;;;;;;-0.58;98.39;100040.34;5181866;28;20423;-73
2023/12/02 02:06:10;;;;;;;12.88;5.47;;;;;;;-0.63;97.98;100039.47;5191102;28;20458;-73
2023/12/02 02:08:40;;;;;;;12.02;5.88;;;;;;;-0.39;99.59;100036.94;5169418;28;20053;-73
2023/12/02 02:11:11;;;;;;;11.80;5.28;;;;;;;-0.41;99.03;100038.66;5192306;28;20014;-73
2023/12/02 02:13:41;;;;;;;14.40;6.00;;;;;;;-0.38;98.72;100036.06;5186617;28;20048;-73
2023/12/02 02:16:12;;;;;;;10.48;5.15;;;;;;;-0.34;96.56;100036.06;5189958;28;20045;-73
2023/12/02 02:18:42;;;;;;;12.70;4.78;;;;;;;-0.26;95.98;100036.03;5183501;28;20018;-72
2023/12/02 02:21:19;;;;;;;10.63;5.25;;;;;;;-0.43;95.10;100038.63;5161330;28;20471;-72
2023/12/02 02:23:49;;;;;;;10.88;5.05;;;;;;;-0.36;95.98;100034.34;5187480;28;20710;-73
2023/12/02 02:26:20;;;;;;;8.60;4.07;;;;;;;-0.37;95.30;100048.03;5189422;28;20117;-73
2023/12/02 02:28:50;;;;;;;9.88;4.43;;;;;;;-0.36;95.18;100044.63;5185719;28;20053;-73
2023/12/02 02:31:20;;;;;;;11.98;4.80;;;;;;;-0.34;94.79;100042.91;5172705;28;20026;-72
2023/12/02 02:33:51;;;;;;;9.98;4.93;;;;;;;-0.47;94.16;100034.38;5181321;28;20045;-72
2023/12/02 02:36:21;;;;;;;11.40;5.05;;;;;;;-0.49;95.58;100033.50;5178482;28;20511;-72
2023/12/02 02:38:51;;;;;;;11.10;5.38;;;;;;;-0.43;96.83;100042.91;5187764;28;20104;-73
2023/12/02 02:41:21;;;;;;;12.10;5.20;;;;;;;-0.73;97.83;100042.91;5191555;28;20032;-72
2023/12/02 02:43:53;;;;;;;12.57;5.43;;;;;;;-0.70;98.04;100041.19;5187397;28;20045;-73
2023/12/02 02:46:23;;;;;;;12.77;5.40;;;;;;;-0.64;97.09;100037.78;5191165;28;20064;-73
2023/12/02 02:48:57;;;;;;;11.25;5.32;;;;;;;-0.46;96.79;100027.50;5190195;28;20465;-73
2023/12/02 02:51:27;;;;;;;10.60;4.03;;;;;;;-0.46;95.38;100033.50;5172360;28;20029;-72
2023/12/02 02:53:58;;;;;;;8.95;4.10;;;;;;;-0.47;95.84;100031.81;5184014;28;20057;-73
2023/12/02 02:56:28;;;;;;;7.70;3.50;;;;;;;-0.49;94.47;100023.25;5186823;28;20037;-73
2023/12/02 02:58:58;;;;;;;6.63;3.20;;;;;;;-0.42;94.25;100030.06;5191265;28;20087;-73
2023/12/02 03:01:29;;;;;;;7.68;3.38;;;;;;;-0.40;93.56;100028.38;5188062;28;20035;-72
2023/12/02 03:03:59;;;;;;;6.30;3.22;;;;;;;-0.38;93.01;100018.09;5188748;28;20061;-72
2023/12/02 03:06:29;;;;;;;7.55;3.70;;;;;;;-0.56;92.64;100036.09;5185298;28;20056;-71
2023/12/02 03:09:00;;;;;;;8.02;3.55;;;;;;;-0.76;94.48;100027.53;5186057;28;20025;-72
2023/12/02 03:11:31;;;;;;;7.90;4.07;;;;;;;-0.51;94.79;100024.09;5186235;28;20458;-73
2023/12/02 03:14:01;;;;;;;11.63;4.43;;;;;;;-0.56;94.67;100033.50;5188693;28;20452;-73
2023/12/02 03:16:31;;;;;;;8.80;4.40;;;;;;;-0.54;95.54;100024.94;5190081;28;20041;-72
2023/12/02 03:19:02;;;;;;;9.68;4.75;;;;;;;-0.58;95.77;100042.94;5191535;28;20048;-73
2023/12/02 03:21:32;;;;;;;9.52;4.93;;;;;;;-0.52;96.49;100035.22;5189162;28;20061;-73
2023/12/02 03:24:03;;;;;;;10.13;4.97;;;;;;;-0.52;96.35;100040.34;5191251;28;20033;-73
2023/12/02 03:26:36;;;;;;;9.65;4.50;;;;;;;-0.64;95.39;100048.03;5187005;28;20045;-73
2023/12/02 03:29:07;;;;;;;9.95;4.93;;;;;;;-0.54;95.69;100049.75;5190834;28;20021;-73
2023/12/02 03:31:37;;;;;;;10.13;4.53;;;;;;;-0.78;96.12;100049.72;5169897;28;20374;-73
2023/12/02 03:34:08;;;;;;;12.05;4.63;;;;;;;-0.68;95.63;100054.03;5184752;28;20030;-73
2023/12/02 03:36:38;;;;;;;12.40;5.03;;;;;;;-0.59;95.79;100048.91;5183253;28;20681;-73
2023/12/02 03:39:12;;;;;;;8.88;3.72;;;;;;;-0.63;95.24;100049.75;5188349;28;20053;-73
2023/12/02 03:41:42;;;;;;;9.32;4.50;;;;;;;-0.74;94.27;100049.75;5183054;28;20021;-73
2023/12/02 03:44:13;;;;;;;8.10;4.18;;;;;;;-0.70;93.87;100050.59;5182945;28;20043;-72
2023/12/02 03:46:43;;;;;;;8.55;4.07;;;;;;;-0.74;93.53;100051.47;5168446;28;20038;-73
2023/12/02 03:49:14;;;;;;;9.52;4.03;;;;;;;-0.89;94.62;100044.59;5167881;28;20537;-73
2023/12/02 03:51:44;;;;;;;8.43;4.03;;;;;;;-0.73;94.56;100051.44;5181672;28;20042;-73
2023/12/02 03:54:14;;;;;;;7.72;3.80;;;;;;;-0.68;94.03;100046.34;5188908;28;20437;-73
2023/12/02 03:56:44;;;;;;;8.35;3.95;;;;;;;-0.67;94.42;100053.16;5163073;28;20241;-73
2023/12/02 03:59:15;;;;;;;9.00;4.28;;;;;;;-0.70;93.53;100048.03;5189359;28;20033;-71
2023/12/02 04:01:45;;;;;;;11.63;5.05;;;;;;;-0.66;94.25;100054.88;5184438;28;20038;-73
2023/12/02 04:04:15;;;;;;;10.55;4.20;;;;;;;-0.76;93.95;100050.63;5188829;28;20029;-71
2023/12/02 04:06:46;;;;;;;9.82;4.03;;;;;;;-0.76;94.08;100053.19;5183295;28;20472;-73
2023/12/02 04:09:16;;;;;;;9.50;4.53;;;;;;;-0.70;93.68;100050.59;5171159;28;20167;-72
2023/12/02 04:11:47;;;;;;;10.23;4.32;;;;;;;-0.84;93.86;100055.72;5184323;28;20041;-73
2023/12/02 04:14:17;;;;;;;8.52;3.90;;;;;;;-0.80;93.51;100051.44;5183848;28;20033;-72
2023/12/02 04:16:47;;;;;;;7.60;4.20;;;;;;;-0.73;93.45;100056.56;5184751;28;20029;-72
2023/12/02 04:19:18;;;;;;;10.75;4.60;;;;;;;-0.70;93.47;100055.75;5190126;28;20065;-72
2023/12/02 04:21:48;;;;;;;10.95;4.50;;;;;;;-0.85;94.48;100051.47;5185743;28;20026;-73
2023/12/02 04:24:18;;;;;;;9.23;4.72;;;;;;;-0.80;93.92;100051.44;5188469;28;20083;-72
2023/12/02 04:26:49;;;;;;;14.43;5.32;;;;;;;-0.83;95.13;100057.44;5166790;28;20029;-73
2023/12/02 04:29:19;;;;;;;10.55;4.55;;;;;;;-0.69;95.90;100049.75;5189032;28;20071;-71
2023/12/02 04:31:49;;;;;;;9.68;4.97;;;;;;;-0.65;94.97;100051.47;5180316;28;20018;-73
2023/12/02 04:34:19;;;;;;;10.38;5.28;;;;;;;-0.82;94.95;100053.16;5177762;28;20045;-73
2023/12/02 04:36:50;;;;;;;10.15;5.32;;;;;;;-0.79;95.41;100053.16;5184332;28;20037;-73
2023/12/02 04:39:21;;;;;;;10.55;5.22;;;;;;;-0.68;95.57;100048.91;5187851;28;20372;-73
2023/12/02 04:41:51;;;;;;;10.13;4.93;;;;;;;-0.61;95.05;100055.72;5181058;28;20021;-73
2023/12/02 04:44:22;;;;;;;10.32;5.32;;;;;;;-0.55;94.70;100058.31;5186749;28;20037;-73
2023/12/02 04:46:52;;;;;;;13.23;5.80;;;;;;;-0.54;94.63;100052.31;5178313;28;20029;-72
2023/12/02 04:49:22;;;;;;;11.50;5.78;;;;;;;-0.66;94.96;100060.00;5171209;28;20423;-73
2023/12/02 04:51:52;;;;;;;12.93;6.25;;;;;;;-0.65;95.15;100065.16;5180068;28;20226;-73
2023/12/02 04:54:23;;;;;;;13.27;5.78;;;;;;;-0.61;95.94;100071.13;5190247;28;20375;-72
2023/12/02 04:56:53;;;;;;;12.38;5.78;;;;;;;-0.72;95.89;100070.28;5187817;28;20278;-72
2023/12/02 04:59:26;;;;;;;14.88;6.43;;;;;;;-0.74;95.55;100071.97;5188515;28;20021;-72
2023/12/02 05:01:56;;;;;;;11.30;5.68;;;;;;;-0.61;96.44;100076.25;5187658;28;20061;-72
2023/12/02 05:04:26;;;;;;;12.65;5.50;;;;;;;-0.60;96.02;100080.53;5184766;28;20025;-73
2023/12/02 05:06:57;;;;;;;13.90;6.10;;;;;;;-0.81;96.79;100091.63;5187135;28;20491;-73
2023/12/02 05:09:27;;;;;;;12.65;6.18;;;;;;;-0.70;98.12;100089.09;5186596;28;20117;-73
2023/12/02 05:11:57;;;;;;;14.38;6.40;;;;;;;-0.79;96.20;100094.19;5188385;28;20297;-73
2023/12/02 05:14:28;;;;;;;12.30;5.47;;;;;;;-0.76;96.04;100096.78;5187206;28;20026;-73
2023/12/02 05:16:58;;;;;;;12.70;6.00;;;;;;;-0.63;95.42;100089.09;5188490;28;20503;-73
2023/12/02 05:19:28;;;;;;;12.32;5.85;;;;;;;-0.64;96.02;100092.50;5190230;28;20029;-72
2023/12/02 05:21:58;;;;;;;13.00;5.82;;;;;;;-0.63;95.97;100090.78;5169783;28;20065;-73
2023/12/02 05:24:29;;;;;;;16.13;6.82;;;;;;;-0.90;95.63;100095.88;5168801;28;20034;-73
2023/12/02 05:26:59;;;;;;;14.57;6.28;;;;;;;-0.82;97.60;100091.63;5166541;28;20030;-73
2023/12/02 05:29:30;;;;;;;15.52;6.25;;;;;;;-0.68;97.56;100097.63;5187258;28;20042;-72
2023/12/02 05:32:00;;;;;;;13.00;5.85;;;;;;;-0.76;96.54;100083.94;5188825;28;20257;-73
2023/12/02 05:34:34;;;;;;;12.80;6.00;;;;;;;-0.82;96.01;100089.91;5178817;28;20033;-71
2023/12/02 05:37:04;;;;;;;17.20;7.18;;;;;;;-0.84;97.39;100085.63;5186718;28;20039;-73
2023/12/02 05:39:35;;;;;;;15.40;7.10;;;;;;;-0.87;98.18;100086.47;5187726;28;20025;-72
2023/12/02 05:42:05;;;;;;;15.93;7.22;;;;;;;-0.85;98.89;100087.34;5188114;28;20086;-73
2023/12/02 05:44:38;;;;;;;15.73;6.57;;;;;;;-1.04;99.68;100092.44;5186266;28;20045;-72
2023/12/02 05:47:08;;;;;;;14.57;6.47;;;;;;;-1.05;99.32;100091.56;5171528;28;20029;-73
2023/12/02 05:49:41;;;;;;;16.52;7.18;;;;;;;-0.99;99.51;100095.84;5185829;28;20419;-73
2023/12/02 05:52:11;;;;;;;13.65;6.43;;;;;;;-1.04;98.93;100095.00;5191478;28;20025;-73
2023/12/02 05:54:42;;;;;;;10.90;5.10;;;;;;;-1.05;99.31;100100.97;5185066;28;20057;-73
2023/12/02 05:57:12;;;;;;;12.43;5.78;;;;;;;-0.95;99.69;100097.56;5191957;28;20064;-73
2023/12/02 05:59:42;;;;;;;13.23;5.90;;;;;;;-0.86;99.50;100100.16;5169020;28;20030;-73
2023/12/02 06:02:13;;;;;;;13.90;5.85;;;;;;;-0.85;98.10;100107.00;5189140;28;20429;-73
2023/12/02 06:04:43;;;;;;;12.82;5.40;;;;;;;-0.72;98.32;100107.00;5191072;28;20250;-72
2023/12/02 06:07:13;;;;;;;9.93;4.47;;;;;;;-0.83;97.38;100105.28;5193045;28;20036;-72
2023/12/02 06:09:43;;;;;;;10.93;4.50;;;;;;;-0.88;97.82;100101.88;5189544;28;20084;-73
2023/12/02 06:12:14;;;;;;;10.77;4.93;;;;;;;-0.90;97.68;100109.53;5175727;28;20021;-72
2023/12/02 06:14:44;;;;;;;10.27;4.40;;;;;;;-0.88;98.16;100109.56;5170602;28;20021;-72
2023/12/02 06:17:15;;;;;;;8.98;4.53;;;;;;;-0.81;98.02;100106.16;5170690;28;20475;-73
2023/12/02 06:19:45;;;;;;;8.05;3.90;;;;;;;-0.68;97.56;100113.88;5192307;28;20028;-72
2023/12/02 06:22:15;;;;;;;10.15;3.60;;;;;;;-0.68;96.75;100113.03;5177367;28;20395;-73
2023/12/02 06:24:45;;;;;;;8.73;3.60;;;;;;;-0.71;97.21;100118.16;5187541;28;20060;-73
2023/12/02 06:27:16;;;;;;;7.28;3.13;;;;;;;-0.73;97.14;100123.25;5192398;28;20021;-74
2023/12/02 06:29:46;;;;;;;5.82;2.72;;;;;;;-0.73;97.53;100130.13;5189709;28;20028;-73
2023/12/02 06:32:17;;;;;;;6.28;2.72;;;;;;;-0.81;96.39;100126.66;5191158;28;20029;-71
2023/12/02 06:34:47;;;;;;;4.13;2.10;;;;;;;-0.88;94.81;100135.19;5189121;28;20029;-73
2023/12/02 06:37:17;;;;;;;5.07;2.20;;;;;;;-0.92;93.68;100133.50;5191946;28;20026;-71
2023/12/02 06:39:48;;;;;;;4.32;2.08;;;;;;;-0.88;94.83;100138.59;5189762;28;20018;-73
2023/12/02 06:42:18;;;;;;;4.50;2.10;;;;;;;-1.09;95.42;100142.84;5187117;28;20021;-72
2023/12/02 06:44:48;;;;;;;5.95;2.40;;;;;;;-0.88;95.08;100145.47;5187590;28;20021;-73
2023/12/02 06:47:18;;;;;;;5.53;2.10;;;;;;;-0.89;94.61;100136.91;5205236;23;20049;-76
2023/12/02 06:49:49;;;;;;;6.13;2.65;;;;;;;-0.80;94.91;100138.63;5185360;28;20475;-77
2023/12/02 06:52:19;;;;;;;4.70;2.28;;;;;;;-0.77;95.38;100148.88;5189731;28;20336;-74
2023/12/02 06:54:49;;;;;;;5.60;2.40;;;;;;;-0.82;95.00;100148.03;5193569;28;20091;-77
2023/12/02 06:57:20;;;;;;;5.43;2.58;;;;;;;-0.89;95.90;100154.00;5186928;28;20030;-78
2023/12/02 06:59:51;;;;;;;6.03;2.88;;;;;;;-0.90;96.62;100163.38;5193682;28;20121;-77
2023/12/02 07:02:22;;;;;;;5.68;3.10;;;;;;;-0.86;96.25;100157.41;5190863;28;20511;-77
2023/12/02 07:04:52;;;;;;;5.93;3.03;;;;;;;-0.78;95.69;100160.00;5189139;28;20017;-76
2023/12/02 07:07:22;;;;;;;8.07;3.97;;;;;;;-0.70;95.70;100158.34;5189176;28;20024;-75
2023/12/02 07:09:53;;;;;;;5.53;3.10;;;;;;;-0.79;95.38;100160.84;5189402;28;20040;-75
2023/12/02 07:12:23;;;;;;;5.50;2.78;;;;;;;-0.69;96.19;100167.75;5193864;28;20486;-77
2023/12/02 07:14:54;;;;;;;5.50;2.90;;;;;;;-0.89;96.37;100169.41;5167998;28;20033;-77
2023/12/02 07:17:24;;;;;;;6.80;3.35;;;;;;;-1.01;97.42;100166.78;5189003;28;20442;-74
2023/12/02 07:19:55;;;;;;;7.78;3.50;;;;;;;-0.92;99.10;100174.53;5193648;28;20460;-78
2023/12/02 07:22:25;;;;;;;5.75;2.90;;;;;;;-0.94;98.39;100171.94;5193399;28;20105;-76
2023/12/02 07:24:57;;;;;;;6.78;3.60;;;;;;;-0.92;98.53;100184.78;5172054;28;20103;-78
2023/12/02 07:27:28;;;;;;;6.70;3.22;;;;;;;-0.79;98.08;100183.94;5192019;28;20029;-77
2023/12/02 07:29:58;;;;;;;7.18;3.58;;;;;;;-0.73;97.48;100189.09;5172716;28;20052;-77
2023/12/02 07:32:28;;;;;;;7.35;3.80;;;;;;;-0.70;96.97;100181.41;5193020;28;20028;-76
2023/12/02 07:34:58;;;;;;;8.45;4.18;;;;;;;-0.96;96.11;100183.91;5182003;28;20084;-78
2023/12/02 07:37:29;;;;;;;7.50;3.83;;;;;;;-0.89;96.53;100179.66;5192928;28;20041;-77
2023/12/02 07:39:59;;;;;;;7.68;3.88;;;;;;;-0.70;96.99;100181.41;5195082;28;20053;-77
2023/12/02 07:42:29;;;;;;;10.13;4.00;;;;;;;-0.75;97.09;100186.53;5193817;28;20037;-76
2023/12/02 07:45:00;;;;;;;9.48;4.18;;;;;;;-0.74;97.02;100185.69;5194772;28;20399;-77
2023/12/02 07:47:30;;;;;;;9.57;4.32;;;;;;;-0.77;95.56;100195.06;5189782;28;20034;-78
2023/12/02 07:50:01;;;;;;;8.48;3.53;;;;;;;-0.82;97.37;100197.63;5190903;28;20025;-76
2023/12/02 07:52:31;;;;;;;7.05;3.58;;;;;;;-0.80;97.50;100198.50;5189314;28;20033;-78
2023/12/02 07:55:02;;;;;;;8.23;3.85;;;;;;;-0.84;97.72;100203.59;5190514;28;20033;-76
2023/12/02 07:57:32;;;;;;;8.68;3.97;;;;;;;-0.94;96.94;100204.38;5193892;28;20034;-77
2023/12/02 08:00:03;;;;;;;9.50;3.65;;;;;;;-0.95;96.58;100208.69;5190897;28;20033;-77
2023/12/02 08:02:34;;;;;;;8.98;4.00;;;;;;;-0.67;96.20;100212.19;5185223;28;20033;-74
2023/12/02 08:05:04;;;;;;;7.78;4.00;;;;;;;-0.72;95.83;100209.63;5187425;28;20076;-77
2023/12/02 08:07:35;;;;;;;8.68;4.00;;;;;;;-0.56;94.86;100203.69;5190957;28;20449;-77
2023/12/02 08:10:06;;;;;;;9.65;4.13;;;;;;;-0.44;94.10;100210.53;5190473;28;20068;-78
2023/12/02 08:12:37;;;;;;;8.38;3.88;;;;;;;-0.73;93.05;100213.03;5185754;28;20048;-77
2023/12/02 08:15:08;;;;;;;9.40;4.15;;;;;;;-0.85;95.12;100217.28;5192185;28;20245;-77
2023/12/02 08:17:38;;;;;;;8.07;3.70;;;;;;;-0.75;96.24;100214.75;5187852;28;20605;-77
2023/12/02 08:20:09;;;;;;;8.30;3.83;;;;;;;-0.59;96.26;100219.06;5189637;28;20100;-77
2023/12/02 08:22:39;;;;;;;9.48;4.85;;;;;;;-0.61;95.39;100214.78;5187765;28;20551;-77
2023/12/02 08:25:10;;;;;;;10.73;4.82;;;;;;;-0.72;96.31;100214.75;5184687;28;20053;-77
2023/12/02 08:27:40;;;;;;;10.73;5.20;;;;;;;-0.70;97.95;100212.19;5192704;28;20033;-74
2023/12/02 08:30:11;;;;;;;12.20;5.05;;;;;;;-0.55;98.30;100212.25;5176859;28;20035;-76
2023/12/02 08:32:41;;;;;;;8.95;4.05;;;;;;;-0.40;97.45;100225.97;5192322;28;20041;-75
2023/12/02 08:35:11;;;;;;;10.18;4.75;;;;;;;-0.36;96.42;100217.41;5188918;28;20166;-78
2023/12/02 08:37:42;;;;;;;9.38;4.60;;;;;;;-0.72;96.61;100219.88;5185646;28;20060;-75
2023/12/02 08:40:12;;;;;;;11.30;4.68;;;;;;;-0.66;99.27;100219.03;5191866;28;20562;-78
2023/12/02 08:42:42;;;;;;;11.30;5.00;;;;;;;-0.75;98.93;100219.03;5188304;28;20037;-75
2023/12/02 08:45:13;;;;;;;11.30;5.10;;;;;;;-0.48;99.08;100219.97;5188555;28;20034;-77
2023/12/02 08:47:43;;;;;;;14.70;5.90;;;;;;;-0.42;99.13;100224.25;5193060;28;20040;-77
2023/12/02 08:50:13;;;;;;;22.63;9.88;;;;;;;-0.35;97.84;100223.41;5174295;28;20021;-78
2023/12/02 08:52:43;;;;;;;14.25;6.57;;;;;;;-0.33;97.55;100230.28;5188688;28;20419;-76
2023/12/02 08:55:14;;;;;;;14.77;5.90;;;;;;;-0.20;97.31;100236.28;5194209;28;20537;-77
2023/12/02 08:57:44;;;;;;;11.65;4.78;;;;;;;-0.24;97.26;100229.44;5184947;28;20036;-78
2023/12/02 09:00:15;;;;;;;10.35;4.95;;;;;;;-0.18;97.86;100229.44;5190846;28;20037;-78
2023/12/02 09:02:45;;;;;;;10.95;5.28;;;;;;;-0.18;97.29;100229.44;5186542;28;20025;-77
2023/12/02 09:05:15;;;;;;;12.23;5.43;;;;;;;-0.11;96.57;100228.56;5191326;28;20067;-78
2023/12/02 09:07:46;;;;;;;11.95;5.72;;;;;;;-0.12;97.27;100229.44;5187037;28;20526;-77
2023/12/02 09:10:16;;;;;;;12.88;5.85;;;;;;;-0.28;97.41;100228.56;5193965;28;20090;-78
2023/12/02 09:12:47;;;;;;;12.55;5.95;;;;;;;-0.09;98.80;100232.00;5189980;28;20029;-78
2023/12/02 09:15:17;;;;;;;12.27;6.25;;;;;;;-0.17;97.97;100232.03;5182850;28;20372;-76
2023/12/02 09:18:09;;;;;;;12.85;6.07;;;;;;;-0.16;96.12;100240.56;5180499;28;20058;-77
2023/12/02 09:20:53;;;;;;;13.25;6.00;;;;;;;0.27;95.75;100230.31;5165120;28;20045;-77
2023/12/02 09:23:24;;;;;;;12.73;5.65;;;;;;;0.23;94.18;100234.59;5174624;28;20030;-74
2023/12/02 09:25:59;;;;;;;14.15;6.43;;;;;;;0.23;96.17;100234.59;5175309;28;20140;-77
2023/12/02 09:28:29;;;;;;;12.10;6.00;;;;;;;0.39;96.75;100232.91;5177713;28;20029;-78
2023/12/02 09:31:08;;;;;;;15.35;6.95;;;;;;;0.47;96.50;100236.28;5159508;28;20041;-76
2023/12/02 09:33:38;;;;;;;13.82;6.32;;;;;;;0.51;94.84;100236.31;5178520;28;20149;-78
2023/12/02 09:36:32;;;;;;;13.57;6.32;;;;;;;0.51;94.51;100231.16;5157868;28;20030;-74
2023/12/02 09:39:31;;;;;;;16.05;6.70;;;;;;;0.52;95.07;100234.59;5176375;28;20025;-76
2023/12/02 09:42:04;;;;;;;18.48;7.03;;;;;;;0.55;94.60;100240.56;5105555;28;20048;-75
2023/12/02 09:44:45;;;;;;;15.65;6.93;;;;;;;0.56;95.13;100239.72;5180930;28;20021;-77
2023/12/02 09:47:18;;;;;;;15.00;7.00;;;;;;;0.36;95.66;100243.19;5178912;28;20133;-77
2023/12/02 09:50:06;;;;;;;16.10;6.93;;;;;;;0.44;96.76;100244.88;5175733;28;20407;-77
2023/12/02 09:53:00;;;;;;;17.13;7.53;;;;;;;0.34;96.77;100245.72;5162870;28;20053;-76
2023/12/02 09:55:43;;;;;;;15.13;7.00;;;;;;;0.31;97.54;100247.44;5178378;28;20514;-77
2023/12/02 09:58:32;;;;;;;19.33;7.90;;;;;;;0.15;97.79;100249.16;5156450;28;20056;-77
2023/12/02 10:01:49;;;;;;;19.27;8.27;;;;;;;0.48;98.16;100251.72;5159524;28;20018;-74
2023/12/02 10:04:22;;;;;;;;;;;;;;;0.40;97.89;100245.72;5145495;28;20048;-74
2023/12/02 10:07:15;;;;;;;15.00;7.53;;;;;;;0.53;97.34;100254.31;5176657;28;19917;-77
2023/12/02 10:10:06;;;;;;;18.45;7.85;;;;;;;0.71;95.27;100239.69;5160576;28;20040;-77
2023/12/02 10:12:46;;;;;;;18.30;8.40;;;;;;;0.45;95.51;100230.31;5178406;28;20036;-75
2023/12/02 10:15:19;;;;;;;17.42;7.97;;;;;;;0.26;95.40;100234.63;5164391;28;20030;-78
2023/12/02 10:17:56;;;;;;;16.30;7.80;;;;;;;0.49;95.62;100237.16;5173117;28;20033;-77
2023/12/02 10:20:28;;;;;;;22.23;8.60;;;;;;;0.31;96.21;100237.16;5177325;28;20040;-76
2023/12/02 10:23:07;;;;;;;18.63;8.45;;;;;;;0.52;95.74;100232.88;5180682;28;20100;-76
2023/12/02 10:25:42;;;;;;;20.45;9.23;;;;;;;0.39;97.09;100233.72;5179005;28;20041;-77
2023/12/02 10:28:31;;;;;;;18.63;8.07;;;;;;;0.36;96.49;100231.16;5176540;28;20030;-77
2023/12/02 10:31:05;;;;;;;21.02;9.13;;;;;;;0.23;97.43;100237.16;5175967;28;20041;-75
2023/12/02 10:33:57;;;;;;;19.48;8.63;;;;;;;0.31;96.39;100238.03;5176313;28;20034;-78
2023/12/02 10:36:28;;;;;;;17.45;8.20;;;;;;;0.10;97.07;100240.59;5175724;28;20514;-77
2023/12/02 10:39:10;;;;;;;20.00;8.60;;;;;;;0.16;98.05;100243.16;5174330;28;20026;-77
2023/12/02 10:41:57;;;;;;;25.65;10.57;;;;;;;0.17;97.89;100247.44;5174591;28;20329;-78
2023/12/02 10:44:31;;;;;;;22.15;9.73;;;;;;;0.26;97.66;100244.91;5178829;28;20033;-78
2023/12/02 10:47:04;;;;;;;25.73;9.90;;;;;;;0.38;97.68;100244.88;5176813;28;20040;-76
2023/12/02 10:49:36;;;;;;;24.58;9.63;;;;;;;0.30;97.80;100245.72;5178670;28;20116;-76
2023/12/02 10:52:07;;;;;;;24.85;10.95;;;;;;;0.12;97.78;100236.31;5175802;28;20353;-75
2023/12/02 10:54:43;;;;;;;25.80;11.00;;;;;;;0.20;99.10;100238.91;5177255;28;20395;-76
2023/12/02 10:57:14;;;;;;;22.15;10.27;;;;;;;0.11;100.00;100239.75;5171882;28;20030;-76
2023/12/02 11:00:06;;;;;;;24.63;10.57;;;;;;;0.31;98.99;100232.03;5175589;28;20063;-77
2023/12/02 11:02:57;;;;;;;24.05;9.95;;;;;;;0.41;98.50;100231.19;5180149;28;20067;-77
2023/12/02 11:05:51;;;;;;;24.98;10.13;;;;;;;0.27;97.34;100231.19;5175692;28;20403;-77
2023/12/02 11:08:48;;;;;;;25.17;10.57;;;;;;;0.37;98.74;100217.47;5159148;28;20038;-76
2023/12/02 11:11:32;;;;;;;25.48;10.13;;;;;;;0.33;98.61;100220.03;5171945;28;20047;-77
2023/12/02 11:14:03;;;;;;;24.85;11.07;;;;;;;0.32;97.87;100219.19;5179607;28;20165;-75
2023/12/02 11:16:42;;;;;;;24.17;10.80;;;;;;;0.34;98.56;100212.34;5176395;28;20042;-77
2023/12/02 11:19:27;;;;;;;27.05;11.15;;;;;;;0.39;96.72;100214.91;5175613;28;20529;-75
2023/12/02 11:22:11;;;;;;;26.27;10.63;;;;;;;0.44;98.48;100218.31;5177423;28;20142;-78
2023/12/02 11:25:04;;;;;;;21.45;9.90;;;;;;;0.36;97.84;100220.91;5177025;28;20113;-76
2023/12/02 11:28:10;;;;;;;26.00;10.32;;;;;;;0.40;99.25;100220.03;5154350;28;20029;-77
2023/12/02 11:30:59;;;;;;;24.48;9.32;;;;;;;0.32;98.26;100218.31;5159965;28;20054;-77
2023/12/02 11:33:56;;;;;;;21.92;9.45;;;;;;;0.46;98.08;100216.59;5174872;28;20137;-74
2023/12/02 11:36:29;;;;;;;25.98;10.15;;;;;;;0.44;98.47;100210.59;5161181;28;20596;-74
2023/12/02 11:39:02;;;;;;;23.05;9.75;;;;;;;0.42;97.87;100220.03;5175912;28;20033;-77
2023/12/02 11:41:55;;;;;;;22.40;9.50;;;;;;;0.36;98.51;100220.06;5178331;28;20097;-77
2023/12/02 11:44:43;;;;;;;23.08;10.65;;;;;;;0.44;98.75;100218.31;5156937;28;20018;-74
2023/12/02 11:47:26;;;;;;;21.63;9.02;;;;;;;0.32;98.26;100215.75;5172099;28;20072;-75